Time;durP1;ratioP1;P1;durP2;ratioP2;P2;SDS_P1;SDS_P2;PMS_P1;PMS_P2;Temp;Humidity;BMP_temperature;BMP_pressure;BME280_temperature;BME280_humidity;BME280_pressure;Samples;Min_cycle;Max_cycle;Signal;HPM_P1;HPM_P2
2021/04/09 00:00:17;;;;;;;1999.90;999.90;;;;;;;4.46;85.32;-18029.28;5040007;28;20255;-28
2021/04/09 00:03:06;;;;;;;1999.90;999.90;;;;;;;4.82;84.46;-18038.81;5058817;28;20213;-28
2021/04/09 00:05:52;;;;;;;1999.90;999.90;;;;;;;4.63;84.44;-18033.69;5058912;28;20260;-28
2021/04/09 00:08:38;;;;;;;1999.90;999.90;;;;;;;4.86;83.91;-18039.88;5058713;28;20223;-28
2021/04/09 00:11:23;;;;;;;1999.90;999.90;;;;;;;4.91;83.92;-18041.22;5057731;28;20250;-28
2021/04/09 00:14:13;;;;;;;1999.90;999.90;;;;;;;4.85;85.73;-18039.75;5057907;28;20208;-28
2021/04/09 00:16:59;;;;;;;1999.90;999.90;;;;;;;5.07;84.23;-18045.53;5061605;28;20215;-29
2021/04/09 00:19:45;;;;;;;1999.90;999.90;;;;;;;4.79;84.55;-18038.00;5066265;28;20224;-28
2021/04/09 00:22:31;;;;;;;1999.90;999.90;;;;;;;4.91;84.04;-18041.09;5062052;28;20192;-28
2021/04/09 00:25:18;;;;;;;1999.90;999.90;;;;;;;4.98;83.50;-18042.97;5061436;28;20247;-29
2021/04/09 00:28:05;;;;;;;1999.90;999.90;;;;;;;5.01;83.93;-18043.78;5059752;28;20220;-28
2021/04/09 00:30:51;;;;;;;1999.90;999.90;;;;;;;5.04;83.05;-18044.72;5064166;28;20279;-28
2021/04/09 00:33:36;;;;;;;1999.90;999.90;;;;;;;5.28;84.04;-18050.88;5061396;28;20259;-28
2021/04/09 00:36:23;;;;;;;1999.90;999.90;;;;;;;5.20;83.92;-18049.00;5058366;28;20208;-28
2021/04/09 00:39:13;;;;;;;1999.90;999.90;;;;;;;5.18;82.84;-18048.47;5058544;28;20208;-28
2021/04/09 00:41:59;;;;;;;1999.90;999.90;;;;;;;5.35;83.06;-18052.91;5061304;28;20287;-28
2021/04/09 00:44:45;;;;;;;1999.90;999.90;;;;;;;5.26;83.72;-18050.34;5058407;28;20204;-28
2021/04/09 00:47:30;;;;;;;1999.90;999.90;;;;;;;5.36;82.80;-18053.16;5060113;28;20261;-29
2021/04/09 00:50:17;;;;;;;1999.90;999.90;;;;;;;5.26;83.18;-18050.47;5060425;28;20220;-30
2021/04/09 00:53:07;;;;;;;1999.90;999.90;;;;;;;5.33;84.20;-18052.38;5060537;28;20200;-29
2021/04/09 00:55:54;;;;;;;1999.90;999.90;;;;;;;5.21;83.39;-18049.13;5061144;28;20563;-29
2021/04/09 00:58:40;;;;;;;1999.90;999.90;;;;;;;5.16;84.41;-18047.81;5060120;28;20593;-28
2021/04/09 01:01:26;;;;;;;1999.90;999.90;;;;;;;5.19;83.79;-18048.59;5057487;28;20208;-28
2021/04/09 01:04:15;;;;;;;1999.90;999.90;;;;;;;5.35;84.24;-18052.91;5057510;28;20600;-28
2021/04/09 01:07:01;;;;;;;1999.90;999.90;;;;;;;5.09;84.47;-18046.06;5057662;28;20623;-28
2021/04/09 01:09:51;;;;;;;1999.90;999.90;;;;;;;4.98;85.72;-18042.97;5058217;28;20495;-28
2021/04/09 01:12:36;;;;;;;1999.90;999.90;;;;;;;4.84;84.65;-18039.34;5058464;28;20207;-29
2021/04/09 01:15:23;;;;;;;1999.90;999.90;;;;;;;5.09;85.25;-18046.06;5058705;28;20216;-29
2021/04/09 01:18:15;;;;;;;1999.90;999.90;;;;;;;4.99;84.67;-18043.38;5065653;28;20306;-28
2021/04/09 01:21:27;;;;;;;1999.90;999.90;;;;;;;4.99;85.54;-18043.38;5057225;28;20318;-28
2021/04/09 01:24:43;;;;;;;1999.90;999.90;;;;;;;4.93;86.05;-18041.63;5063482;28;20193;-28
2021/04/09 01:28:05;;;;;;;1999.90;999.90;;;;;;;4.98;86.44;-18042.97;5058217;28;20585;-28
2021/04/09 01:31:15;;;;;;;1999.90;999.90;;;;;;;5.12;85.87;-18046.88;5059659;28;20285;-28
2021/04/09 01:34:02;;;;;;;1999.90;999.90;;;;;;;4.78;87.77;-18037.72;5058009;28;20523;-29
2021/04/09 01:36:50;;;;;;;1999.90;999.90;;;;;;;4.92;87.87;-18041.50;5058011;28;20208;-28
2021/04/09 01:39:41;;;;;;;1999.90;999.90;;;;;;;4.97;88.31;-18042.84;5058635;28;20352;-29
2021/04/09 01:42:29;;;;;;;1999.90;999.90;;;;;;;4.75;88.86;-18036.94;5060405;28;20193;-29
2021/04/09 01:45:15;;;;;;;1999.90;999.90;;;;;;;4.76;88.78;-18037.31;5060847;28;20200;-29
2021/04/09 01:48:08;;;;;;;1999.90;999.90;;;;;;;4.92;89.58;-18041.50;5060947;28;20220;-28
2021/04/09 01:50:54;;;;;;;1999.90;999.90;;;;;;;4.84;88.89;-18039.34;5060058;28;20224;-29
2021/04/09 01:53:44;;;;;;;1999.90;999.90;;;;;;;4.76;88.52;-18037.19;5060447;28;20219;-29
2021/04/09 01:56:31;;;;;;;1999.90;999.90;;;;;;;4.85;89.84;-18039.75;5061125;28;20207;-28
2021/04/09 01:59:18;;;;;;;1999.90;999.90;;;;;;;4.75;89.07;-18036.94;5062820;28;20457;-28
2021/04/09 02:02:04;;;;;;;1999.90;999.90;;;;;;;4.98;90.95;-18043.09;5061907;28;20197;-28
2021/04/09 02:04:55;;;;;;;1999.90;999.90;;;;;;;4.79;89.73;-18038.00;5061118;28;20732;-28
2021/04/09 02:07:42;;;;;;;1999.90;999.90;;;;;;;5.04;89.73;-18044.56;5068582;28;20200;-28
2021/04/09 02:10:28;;;;;;;1999.90;999.90;;;;;;;4.78;89.32;-18037.88;5069918;28;20263;-28
2021/04/09 02:13:15;;;;;;;1999.90;999.90;;;;;;;5.06;88.47;-18045.13;5060327;28;20619;-28
2021/04/09 02:16:02;;;;;;;1999.90;999.90;;;;;;;4.87;90.39;-18040.16;5060094;28;20196;-28
2021/04/09 02:18:48;;;;;;;1999.90;999.90;;;;;;;4.71;89.25;-18035.84;5059123;28;20196;-28
2021/04/09 02:21:42;;;;;;;1999.90;999.90;;;;;;;4.77;89.55;-18037.47;5059600;28;20260;-28
2021/04/09 02:24:28;;;;;;;1999.90;999.90;;;;;;;4.91;90.18;-18041.22;5059487;28;20200;-28
2021/04/09 02:27:14;;;;;;;1999.90;999.90;;;;;;;4.95;89.66;-18042.28;5059512;28;20302;-28
2021/04/09 02:30:00;;;;;;;1999.90;999.90;;;;;;;4.94;91.25;-18042.03;5059353;28;20465;-28
2021/04/09 02:32:46;;;;;;;1999.90;999.90;;;;;;;4.94;91.03;-18042.03;5060166;28;20221;-29
2021/04/09 02:35:32;;;;;;;1999.90;999.90;;;;;;;4.98;90.79;-18042.97;5060477;28;20282;-28
2021/04/09 02:38:18;;;;;;;1999.90;999.90;;;;;;;4.96;90.15;-18042.44;5065572;28;20200;-28
2021/04/09 02:41:04;;;;;;;1999.90;999.90;;;;;;;5.16;90.48;-18047.81;5063955;28;20189;-28
2021/04/09 02:43:51;;;;;;;1999.90;999.90;;;;;;;5.04;90.88;-18044.56;5059907;28;20204;-28
2021/04/09 02:46:39;;;;;;;1999.90;999.90;;;;;;;5.28;89.66;-18050.88;5060209;28;20204;-28
2021/04/09 02:49:36;;;;;;;1999.90;999.90;;;;;;;5.24;90.40;-18049.81;5059010;28;20601;-28
2021/04/09 02:52:23;;;;;;;1999.90;999.90;;;;;;;5.12;89.57;-18046.88;5059691;28;20208;-29
2021/04/09 02:55:16;;;;;;;1999.90;999.90;;;;;;;5.33;90.60;-18052.22;5059294;28;20202;-28
2021/04/09 02:58:06;;;;;;;1999.90;999.90;;;;;;;5.11;90.59;-18046.59;5058921;28;20213;-29
2021/04/09 03:00:53;;;;;;;1999.90;999.90;;;;;;;5.19;89.96;-18048.75;5059152;28;20252;-28
2021/04/09 03:03:42;;;;;;;1999.90;999.90;;;;;;;5.60;90.31;-18059.34;5059415;28;20197;-28
2021/04/09 03:06:28;;;;;;;1999.90;999.90;;;;;;;5.12;89.35;-18046.88;5061995;28;20216;-29
2021/04/09 03:09:14;;;;;;;1999.90;999.90;;;;;;;5.42;88.99;-18054.66;5059758;28;20307;-28
2021/04/09 03:12:00;;;;;;;1999.90;999.90;;;;;;;5.51;89.37;-18057.19;5063012;28;20318;-28
2021/04/09 03:14:48;;;;;;;1999.90;999.90;;;;;;;5.58;89.43;-18058.94;5061591;28;20204;-28
2021/04/09 03:17:43;;;;;;;1999.90;999.90;;;;;;;5.32;90.42;-18051.97;5062671;28;20219;-28
2021/04/09 03:20:30;;;;;;;1999.90;999.90;;;;;;;5.46;90.07;-18055.72;5062971;28;20235;-28
2021/04/09 03:23:15;;;;;;;1999.90;999.90;;;;;;;5.44;91.19;-18055.19;5067369;28;20208;-28
2021/04/09 03:26:04;;;;;;;1999.90;999.90;;;;;;;5.51;92.10;-18057.19;5065057;28;20268;-29
2021/04/09 03:28:51;;;;;;;1999.90;999.90;;;;;;;5.31;91.94;-18051.81;5061671;28;20548;-28
2021/04/09 03:31:37;;;;;;;1999.90;999.90;;;;;;;5.71;91.81;-18062.44;5059817;28;20224;-28
2021/04/09 03:34:23;;;;;;;1999.90;999.90;;;;;;;5.51;90.55;-18057.06;5058541;28;20493;-29
2021/04/09 03:37:08;;;;;;;1999.90;999.90;;;;;;;5.37;92.60;-18053.31;5058522;28;20280;-28
2021/04/09 03:39:54;;;;;;;1999.90;999.90;;;;;;;5.34;93.74;-18052.50;5057942;28;20208;-28
2021/04/09 03:42:42;;;;;;;1999.90;999.90;;;;;;;5.31;92.67;-18051.69;5058844;28;20196;-28
2021/04/09 03:45:29;;;;;;;1999.90;999.90;;;;;;;5.31;93.04;-18051.81;5058691;28;20196;-28
2021/04/09 03:48:14;;;;;;;1999.90;999.90;;;;;;;5.58;92.92;-18058.81;5065272;28;20200;-28
2021/04/09 03:51:00;;;;;;;1999.90;999.90;;;;;;;5.29;92.89;-18051.28;5059524;28;20220;-29
2021/04/09 03:53:46;;;;;;;1999.90;999.90;;;;;;;5.33;93.02;-18052.22;5059069;28;20200;-28
2021/04/09 03:56:32;;;;;;;1999.90;999.90;;;;;;;5.46;93.54;-18055.84;5059737;28;20275;-28
2021/04/09 03:59:17;;;;;;;1999.90;999.90;;;;;;;5.67;92.53;-18061.34;5059426;28;20354;-29
2021/04/09 04:02:04;;;;;;;1999.90;999.90;;;;;;;5.59;93.34;-18059.22;5059217;28;20196;-28
2021/04/09 04:04:50;;;;;;;1999.90;999.90;;;;;;;5.54;94.25;-18058.00;5059697;28;20200;-28
2021/04/09 04:07:36;;;;;;;1999.90;999.90;;;;;;;5.43;93.88;-18054.91;5070586;28;20224;-28
2021/04/09 04:10:23;;;;;;;1999.90;999.90;;;;;;;5.64;93.24;-18060.56;5059050;28;20482;-28
2021/04/09 04:13:08;;;;;;;1999.90;999.90;;;;;;;5.49;94.22;-18056.66;5058851;28;20500;-28
2021/04/09 04:15:54;;;;;;;1999.90;999.90;;;;;;;5.63;93.90;-18060.28;5058502;28;20275;-28
2021/04/09 04:18:41;;;;;;;1999.90;999.90;;;;;;;5.35;95.51;-18052.91;5058515;28;20235;-28
2021/04/09 04:21:26;;;;;;;1999.90;999.90;;;;;;;5.30;96.08;-18051.56;5058158;28;20243;-28
2021/04/09 04:24:12;;;;;;;1999.90;999.90;;;;;;;5.45;96.03;-18055.59;5058503;28;20205;-28
2021/04/09 04:26:58;;;;;;;1999.90;999.90;;;;;;;5.61;95.71;-18059.63;5059988;28;20255;-29
2021/04/09 04:29:50;;;;;;;1999.90;999.90;;;;;;;5.47;94.58;-18056.00;5063188;28;20694;-31
2021/04/09 04:32:40;;;;;;;1999.90;999.90;;;;;;;5.79;94.42;-18064.44;5059413;28;20231;-31
2021/04/09 04:35:26;;;;;;;1999.90;999.90;;;;;;;5.64;94.88;-18060.41;5059097;28;20278;-31
2021/04/09 04:38:12;;;;;;;1999.90;999.90;;;;;;;5.52;94.33;-18057.34;5058720;28;20284;-31
2021/04/09 04:40:58;;;;;;;1999.90;999.90;;;;;;;5.63;93.94;-18060.16;5058410;28;20491;-31
2021/04/09 04:43:43;;;;;;;1999.90;999.90;;;;;;;5.71;92.82;-18062.31;5058494;28;20347;-31
2021/04/09 04:46:29;;;;;;;1999.90;999.90;;;;;;;5.68;93.47;-18061.63;5058397;28;20468;-31
2021/04/09 04:49:17;;;;;;;1999.90;999.90;;;;;;;5.57;93.37;-18058.69;5058159;28;20205;-31
2021/04/09 04:52:07;;;;;;;1999.90;999.90;;;;;;;6.02;94.09;-18070.63;5057839;28;20474;-31
2021/04/09 04:54:53;;;;;;;1999.90;999.90;;;;;;;5.99;93.32;-18069.69;5057996;28;20196;-31
2021/04/09 04:57:38;;;;;;;1999.90;999.90;;;;;;;5.81;93.85;-18065.13;5057741;28;20195;-30
2021/04/09 05:00:25;;;;;;;1999.90;999.90;;;;;;;5.74;93.94;-18063.09;5057929;28;20346;-31
2021/04/09 05:03:11;;;;;;;1999.90;999.90;;;;;;;5.76;93.92;-18063.63;5057592;28;20259;-31
2021/04/09 05:05:59;;;;;;;1999.90;999.90;;;;;;;5.89;92.70;-18067.13;5057987;28;20276;-31
2021/04/09 05:08:46;;;;;;;1999.90;999.90;;;;;;;6.15;92.89;-18074.13;5058821;28;20336;-31
2021/04/09 05:11:32;;;;;;;1999.90;999.90;;;;;;;5.91;92.75;-18067.66;5060200;28;20287;-31
2021/04/09 05:14:17;;;;;;;1999.90;999.90;;;;;;;5.80;95.21;-18064.84;5062388;28;20200;-30
2021/04/09 05:17:03;;;;;;;1999.90;999.90;;;;;;;6.04;93.70;-18071.16;5063237;28;20213;-31
2021/04/09 05:19:49;;;;;;;1999.90;999.90;;;;;;;6.11;93.60;-18072.91;5061799;28;20245;-30
2021/04/09 05:22:34;;;;;;;1999.90;999.90;;;;;;;6.08;93.15;-18072.09;5061511;28;20232;-31
2021/04/09 05:25:21;;;;;;;1999.90;999.90;;;;;;;6.19;93.07;-18075.19;5068440;28;20201;-31
2021/04/09 05:28:08;;;;;;;1999.90;999.90;;;;;;;5.93;94.28;-18068.22;5063325;28;20475;-31
2021/04/09 05:30:55;;;;;;;1999.90;999.90;;;;;;;6.04;92.66;-18071.03;5062767;28;20259;-31
2021/04/09 05:33:42;;;;;;;1999.90;999.90;;;;;;;6.36;92.85;-18079.47;5062242;28;20198;-31
2021/04/09 05:36:27;;;;;;;1999.90;999.90;;;;;;;6.29;91.80;-18077.72;5061987;28;20209;-31
2021/04/09 05:39:13;;;;;;;1999.90;999.90;;;;;;;6.04;92.61;-18071.03;5062227;28;20351;-31
2021/04/09 05:42:00;;;;;;;1999.90;999.90;;;;;;;6.09;92.10;-18072.38;5062627;28;20233;-31
2021/04/09 05:44:46;;;;;;;1999.90;999.90;;;;;;;6.14;91.46;-18073.84;5060864;28;20199;-31
2021/04/09 05:47:32;;;;;;;1999.90;999.90;;;;;;;6.51;91.94;-18083.63;5061984;28;20270;-31
2021/04/09 05:50:18;;;;;;;1999.90;999.90;;;;;;;6.62;91.12;-18086.31;5062353;28;20260;-31
2021/04/09 05:53:04;;;;;;;1999.90;999.90;;;;;;;6.71;92.14;-18088.88;5061747;28;20347;-31
2021/04/09 05:55:50;;;;;;;1999.90;999.90;;;;;;;6.44;91.17;-18081.63;5062027;28;20199;-32
2021/04/09 05:58:38;;;;;;;1999.90;999.90;;;;;;;6.49;91.21;-18083.09;5066989;28;20212;-31
2021/04/09 06:01:25;;;;;;;1999.90;999.90;;;;;;;6.91;91.23;-18094.22;5063846;28;20597;-32
2021/04/09 06:04:14;;;;;;;1999.90;999.90;;;;;;;6.94;91.17;-18094.78;5064749;28;20482;-31
2021/04/09 06:07:00;;;;;;;1999.90;999.90;;;;;;;6.74;90.16;-18089.53;5060927;28;20198;-31
2021/04/09 06:09:49;;;;;;;1999.90;999.90;;;;;;;6.82;88.55;-18091.69;5060570;28;20358;-31
2021/04/09 06:12:38;;;;;;;1999.90;999.90;;;;;;;7.36;87.65;-18105.91;5061190;28;20195;-31
2021/04/09 06:15:25;;;;;;;1999.90;999.90;;;;;;;7.35;87.89;-18105.75;5060338;28;20210;-31
2021/04/09 06:18:12;;;;;;;1999.90;999.90;;;;;;;7.79;86.24;-18117.41;5060335;28;20192;-31
2021/04/09 06:20:57;;;;;;;1999.90;999.90;;;;;;;7.93;84.86;-18121.16;5059400;28;20647;-31
2021/04/09 06:23:43;;;;;;;1999.90;999.90;;;;;;;7.78;84.94;-18117.16;5063283;28;20225;-31
2021/04/09 06:26:33;;;;;;;1999.90;999.90;;;;;;;7.72;84.85;-18115.53;5063875;28;20212;-31
2021/04/09 06:29:18;;;;;;;1999.90;999.90;;;;;;;7.94;85.40;-18121.44;5061340;28;20205;-31
2021/04/09 06:32:06;;;;;;;1999.90;999.90;;;;;;;7.79;84.17;-18117.28;5060863;28;20196;-32
2021/04/09 06:34:52;;;;;;;1999.90;999.90;;;;;;;7.52;85.23;-18110.19;5060881;28;20335;-31
2021/04/09 06:37:37;;;;;;;1999.90;999.90;;;;;;;7.61;85.94;-18112.59;5059244;28;20204;-31
2021/04/09 06:40:27;;;;;;;1999.90;999.90;;;;;;;8.15;84.68;-18126.78;5060759;28;20201;-29
2021/04/09 06:43:17;;;;;;;1999.90;999.90;;;;;;;8.04;84.52;-18123.84;5060756;28;20363;-29
2021/04/09 06:46:03;;;;;;;1999.90;999.90;;;;;;;8.62;80.45;-18139.38;5060334;28;20255;-29
2021/04/09 06:48:56;;;;;;;1999.90;999.90;;;;;;;8.77;81.62;-18143.16;5061425;28;20786;-29
2021/04/09 06:51:45;;;;;;;1999.90;999.90;;;;;;;8.52;79.87;-18136.59;5061984;28;20200;-29
2021/04/09 06:54:35;;;;;;;1999.90;999.90;;;;;;;9.17;76.71;-18153.72;5059694;28;20677;-30
2021/04/09 06:57:22;;;;;;;1999.90;999.90;;;;;;;10.17;73.55;-18180.22;5058884;28;20197;-29
2021/04/09 07:00:13;;;;;;;1999.90;999.90;;;;;;;9.93;72.00;-18173.78;5039171;28;20198;-29
2021/04/09 07:02:58;;;;;;;1999.90;999.90;;;;;;;10.53;69.84;-18189.72;5040294;28;20225;-30
2021/04/09 07:05:49;;;;;;;1999.90;999.90;;;;;;;9.63;73.93;-18166.03;5047093;28;20199;-30
2021/04/09 07:08:38;;;;;;;1999.90;999.90;;;;;;;10.04;72.64;-18176.72;5041307;28;20200;-30
2021/04/09 07:11:24;;;;;;;1999.90;999.90;;;;;;;11.02;68.90;-18202.53;5059415;28;20199;-30
2021/04/09 07:14:10;;;;;;;1999.90;999.90;;;;;;;10.90;66.91;-18199.34;5059225;28;20213;-30
2021/04/09 07:17:03;;;;;;;1999.90;999.90;;;;;;;10.41;67.55;-18186.38;5059253;28;20221;-30
2021/04/09 07:20:17;;;;;;;1999.90;999.90;;;;;;;10.61;67.24;-18191.84;5058759;28;20624;-30
2021/04/09 07:23:07;;;;;;;1999.90;999.90;;;;;;;11.49;65.24;-18214.84;5059157;28;20328;-29
2021/04/09 07:25:54;;;;;;;1999.90;999.90;;;;;;;9.43;72.75;-18160.53;5058041;28;20292;-30
2021/04/09 07:28:39;;;;;;;1999.90;999.90;;;;;;;9.57;72.39;-18164.28;5059763;28;20312;-30
2021/04/09 07:31:33;;;;;;;1999.90;999.90;;;;;;;10.35;70.88;-18184.91;5059837;28;20561;-29
2021/04/09 07:34:23;;;;;;;1999.90;999.90;;;;;;;10.56;68.86;-18190.38;5058952;28;20297;-30
2021/04/09 07:37:15;;;;;;;1999.90;999.90;;;;;;;11.21;66.96;-18207.63;5057602;28;20204;-31
2021/04/09 07:40:08;;;;;;;1999.90;999.90;;;;;;;11.89;62.63;-18225.38;5058205;28;20208;-30
2021/04/09 07:42:55;;;;;;;1999.90;999.90;;;;;;;11.42;65.99;-18213.09;5058272;28;20252;-30
2021/04/09 07:45:44;;;;;;;1999.90;999.90;;;;;;;12.60;61.20;-18244.22;5058318;28;20486;-30
2021/04/09 07:48:31;;;;;;;1999.90;999.90;;;;;;;13.23;59.60;-18260.75;5057791;28;20323;-30
2021/04/09 07:51:21;;;;;;;1999.90;999.90;;;;;;;12.04;60.76;-18229.41;5057033;28;20204;-30
2021/04/09 07:54:12;;;;;;;1999.90;999.90;;;;;;;11.50;63.82;-18215.09;5057637;28;20200;-30
2021/04/09 07:57:00;;;;;;;1999.90;999.90;;;;;;;13.16;60.98;-18258.91;5057904;28;20200;-30
2021/04/09 07:59:49;;;;;;;1999.90;999.90;;;;;;;13.23;61.78;-18260.63;5057911;28;20351;-30
2021/04/09 08:02:38;;;;;;;1999.90;999.90;;;;;;;12.48;60.81;-18240.88;5058074;28;20275;-30
2021/04/09 08:05:26;;;;;;;1999.90;999.90;;;;;;;12.21;61.05;-18233.81;5058454;28;20208;-30
2021/04/09 08:08:18;;;;;;;1999.90;999.90;;;;;;;13.31;59.85;-18262.91;5058374;28;20209;-30
2021/04/09 08:11:17;;;;;;;1999.90;999.90;;;;;;;12.50;61.72;-18241.41;5056719;28;20266;-30
2021/04/09 08:14:07;;;;;;;1999.90;999.90;;;;;;;13.13;59.99;-18258.09;5057434;28;20275;-30
2021/04/09 08:16:54;;;;;;;1999.90;999.90;;;;;;;12.61;59.77;-18244.34;5059846;28;20224;-30
2021/04/09 08:19:42;;;;;;;1999.90;999.90;;;;;;;13.89;58.22;-18278.09;5061415;28;20558;-30
2021/04/09 08:22:28;;;;;;;1999.90;999.90;;;;;;;13.59;61.68;-18270.09;5058152;28;20270;-30
2021/04/09 08:25:19;;;;;;;1999.90;999.90;;;;;;;13.55;57.61;-18269.03;5057467;28;20477;-30
2021/04/09 08:28:07;;;;;;;1999.90;999.90;;;;;;;13.19;58.55;-18259.69;5056834;28;20223;-30
2021/04/09 08:30:54;;;;;;;1999.90;999.90;;;;;;;13.59;59.49;-18270.09;5056478;28;20203;-30
2021/04/09 08:33:42;;;;;;;1999.90;999.90;;;;;;;14.62;56.35;-18297.31;5056798;28;20200;-30
2021/04/09 08:36:30;;;;;;;1999.90;999.90;;;;;;;13.98;56.89;-18280.38;5056517;28;20247;-30
2021/04/09 08:39:18;;;;;;;1999.90;999.90;;;;;;;12.87;61.46;-18251.16;5056751;28;20197;-30
2021/04/09 08:42:06;;;;;;;1999.90;999.90;;;;;;;13.50;60.83;-18267.84;5057441;28;20236;-31
2021/04/09 08:44:52;;;;;;;1999.90;999.90;;;;;;;14.46;56.00;-18293.16;5057423;28;20196;-30
2021/04/09 08:47:39;;;;;;;1999.90;999.90;;;;;;;13.28;59.62;-18261.97;5057042;28;20208;-30
2021/04/09 08:50:25;;;;;;;1999.90;999.90;;;;;;;12.99;59.75;-18254.50;5043613;28;20343;-30
2021/04/09 08:53:22;;;;;;;1999.90;999.90;;;;;;;14.71;54.78;-18299.69;5056610;28;20212;-30
2021/04/09 08:56:11;;;;;;;1999.90;999.90;;;;;;;14.38;54.08;-18291.03;5038680;28;20213;-28
2021/04/09 08:58:56;;;;;;;1999.90;999.90;;;;;;;14.44;53.88;-18292.63;5036955;28;20200;-28
2021/04/09 09:01:42;;;;;;;1999.90;999.90;;;;;;;14.50;56.03;-18294.09;5038491;28;20624;-28
2021/04/09 09:04:40;;;;;;;1999.90;999.90;;;;;;;14.69;53.85;-18299.03;5040339;28;20196;-28
2021/04/09 09:07:53;;;;;;;1999.90;999.90;;;;;;;15.12;53.34;-18310.34;5036458;28;20263;-28
2021/04/09 09:10:51;;;;;;;1999.90;999.90;;;;;;;14.57;55.73;-18295.84;5036366;28;20304;-28
2021/04/09 09:13:42;;;;;;;1999.90;999.90;;;;;;;14.35;55.29;-18290.22;5036298;28;20477;-28
2021/04/09 09:16:38;;;;;;;1999.90;999.90;;;;;;;15.19;55.27;-18312.22;5054505;28;20207;-31
2021/04/09 09:19:37;;;;;;;1999.90;999.90;;;;;;;15.48;51.99;-18319.94;5056135;28;20201;-29
2021/04/09 09:22:25;;;;;;;1999.90;999.90;;;;;;;16.84;50.22;-18355.59;5056275;28;20235;-29
2021/04/09 09:25:11;;;;;;;1999.90;999.90;;;;;;;15.00;52.47;-18307.16;5056060;28;20229;-29
2021/04/09 09:28:03;;;;;;;1999.90;999.90;;;;;;;13.38;57.24;-18264.63;5056559;28;20200;-29
2021/04/09 09:30:55;;;;;;;1999.90;999.90;;;;;;;14.60;55.58;-18296.75;5056253;28;20260;-29
2021/04/09 09:33:42;;;;;;;1999.90;999.90;;;;;;;15.20;54.68;-18312.47;5058242;28;20197;-29
2021/04/09 09:36:59;;;;;;;1999.90;999.90;;;;;;;15.37;51.68;-18316.88;5060201;28;20205;-30
2021/04/09 09:39:48;;;;;;;1999.90;999.90;;;;;;;15.59;54.11;-18322.75;5058420;28;20216;-29
2021/04/09 09:42:45;;;;;;;1999.90;999.90;;;;;;;16.24;51.47;-18339.78;5058736;28;20220;-30
2021/04/09 09:45:35;;;;;;;1999.90;999.90;;;;;;;16.75;50.97;-18353.09;5071702;28;20229;-30
2021/04/09 09:48:22;;;;;;;1999.90;999.90;;;;;;;14.74;52.90;-18300.38;5071123;28;20695;-30
2021/04/09 09:51:33;;;;;;;1999.90;999.90;;;;;;;15.28;53.47;-18314.47;5072541;28;20208;-29
2021/04/09 09:54:22;;;;;;;1999.90;999.90;;;;;;;14.41;55.17;-18291.69;5059628;28;20353;-30
2021/04/09 09:57:43;;;;;;;1999.90;999.90;;;;;;;14.82;55.93;-18302.63;5057640;28;20220;-30
2021/04/09 10:00:31;;;;;;;1999.90;999.90;;;;;;;14.35;56.36;-18290.09;5056773;28;20744;-30
2021/04/09 10:03:22;;;;;;;1999.90;999.90;;;;;;;13.73;60.18;-18273.97;5060266;28;20217;-30
2021/04/09 10:06:12;;;;;;;1999.90;999.90;;;;;;;13.30;60.43;-18262.63;5059880;28;20201;-29
2021/04/09 10:09:32;;;;;;;1999.90;999.90;;;;;;;14.09;58.92;-18283.44;5060419;28;20201;-29
2021/04/09 10:12:24;;;;;;;1999.90;999.90;;;;;;;13.96;60.19;-18279.97;5039791;28;20209;-29
2021/04/09 10:15:14;;;;;;;1999.90;999.90;;;;;;;14.43;57.99;-18292.38;5039888;28;20279;-29
2021/04/09 10:18:09;;;;;;;1999.90;999.90;;;;;;;14.83;58.27;-18302.91;5040285;28;20202;-29
2021/04/09 10:20:56;;;;;;;1999.90;999.90;;;;;;;14.40;59.13;-18291.56;5039926;28;20244;-29
2021/04/09 10:23:47;;;;;;;1999.90;999.90;;;;;;;15.16;56.09;-18311.41;5038764;28;20555;-29
2021/04/09 10:26:33;;;;;;;1999.90;999.90;;;;;;;16.48;52.61;-18346.16;5039304;28;20202;-29
2021/04/09 10:29:25;;;;;;;1999.90;999.90;;;;;;;15.37;53.37;-18317.00;5040690;28;20205;-30
2021/04/09 10:32:16;;;;;;;1999.90;999.90;;;;;;;15.52;55.01;-18320.88;5039704;28;20214;-30
2021/04/09 10:35:03;;;;;;;1999.90;999.90;;;;;;;14.76;56.65;-18301.03;5039154;28;20352;-29
2021/04/09 10:37:48;;;;;;;1999.90;999.90;;;;;;;16.56;51.51;-18348.16;5039403;28;20610;-29
2021/04/09 10:40:58;;;;;;;1999.90;999.90;;;;;;;15.56;50.33;-18321.81;5043443;28;20487;-29
2021/04/09 10:43:58;;;;;;;1999.90;999.90;;;;;;;14.73;57.29;-18300.09;5048890;28;20275;-29
2021/04/09 10:46:45;;;;;;;1999.90;999.90;;;;;;;14.43;56.78;-18292.25;5058794;28;20276;-29
2021/04/09 10:49:33;;;;;;;1999.90;999.90;;;;;;;15.04;56.15;-18308.22;5042207;28;20620;-29
2021/04/09 10:52:25;;;;;;;1999.90;999.90;;;;;;;15.65;54.97;-18324.22;5040960;28;20202;-29
2021/04/09 10:55:12;;;;;;;1999.90;999.90;;;;;;;15.68;53.43;-18325.00;5057293;28;20213;-30
2021/04/09 10:57:58;;;;;;;1999.90;999.90;;;;;;;14.65;57.24;-18297.97;5039549;28;20309;-29
2021/04/09 11:00:45;;;;;;;1999.90;999.90;;;;;;;13.88;58.47;-18277.84;5045747;28;20201;-29
2021/04/09 11:03:31;;;;;;;1999.90;999.90;;;;;;;13.96;56.26;-18279.84;5052755;28;20232;-29
2021/04/09 11:06:21;;;;;;;1999.90;999.90;;;;;;;14.14;56.52;-18284.78;5047396;28;20197;-29
2021/04/09 11:09:12;;;;;;;1999.90;999.90;;;;;;;15.26;54.82;-18314.09;5039940;28;20272;-30
2021/04/09 11:12:15;;;;;;;1999.90;999.90;;;;;;;16.32;51.91;-18341.78;5056432;28;20197;-30
2021/04/09 11:15:06;;;;;;;1999.90;999.90;;;;;;;14.79;55.43;-18301.81;5040056;28;20221;-29
2021/04/09 11:17:55;;;;;;;1999.90;999.90;;;;;;;15.18;52.41;-18311.81;5057897;28;20200;-30
2021/04/09 11:20:45;;;;;;;1999.90;999.90;;;;;;;15.47;50.35;-18319.69;5044095;28;20236;-29
2021/04/09 11:23:38;;;;;;;1999.90;999.90;;;;;;;13.90;56.91;-18278.38;5052559;28;20219;-29
2021/04/09 11:26:24;;;;;;;1999.90;999.90;;;;;;;15.26;53.09;-18314.09;5048431;28;20205;-29
2021/04/09 11:29:22;;;;;;;1999.90;999.90;;;;;;;15.62;48.55;-18323.41;5046333;28;20205;-30
2021/04/09 11:32:09;;;;;;;1999.90;999.90;;;;;;;15.12;49.79;-18310.50;5047863;28;20193;-29
2021/04/09 11:34:56;;;;;;;1999.90;999.90;;;;;;;14.87;51.38;-18303.81;5050336;28;20213;-30
2021/04/09 11:37:52;;;;;;;1999.90;999.90;;;;;;;16.05;52.10;-18334.84;5055767;28;20621;-31
2021/04/09 11:40:40;;;;;;;1999.90;999.90;;;;;;;15.62;51.07;-18323.53;5049891;28;20203;-29
2021/04/09 11:43:27;;;;;;;1999.90;999.90;;;;;;;14.27;53.39;-18287.97;5046929;28;20289;-29
2021/04/09 11:46:31;;;;;;;1999.90;999.90;;;;;;;14.51;57.15;-18294.25;5047802;28;20608;-29
2021/04/09 11:49:30;;;;;;;1999.90;999.90;;;;;;;13.42;58.31;-18265.84;5057828;28;20204;-29
2021/04/09 11:52:17;;;;;;;1999.90;999.90;;;;;;;14.13;57.98;-18284.38;5057639;28;20215;-29
2021/04/09 11:55:13;;;;;;;1999.90;999.90;;;;;;;13.59;61.36;-18270.09;5057718;28;20200;-29
2021/04/09 11:58:18;;;;;;;1999.90;999.90;;;;;;;13.28;63.14;-18262.09;5057947;28;20596;-28
2021/04/09 12:01:11;;;;;;;1999.90;999.90;;;;;;;12.80;64.37;-18249.28;5057803;28;20312;-28
2021/04/09 12:04:06;;;;;;;1999.90;999.90;;;;;;;13.58;64.47;-18269.84;5057760;28;20248;-29
2021/04/09 12:06:58;;;;;;;1999.90;999.90;;;;;;;13.67;63.02;-18272.38;5057825;28;20209;-29
2021/04/09 12:09:54;;;;;;;1999.90;999.90;;;;;;;13.29;65.47;-18262.22;5057298;28;20204;-28
2021/04/09 12:12:41;;;;;;;1999.90;999.90;;;;;;;13.67;64.22;-18272.38;5057404;28;20495;-29
2021/04/09 12:15:32;;;;;;;1999.90;999.90;;;;;;;12.87;65.87;-18251.28;5057509;28;20303;-29
2021/04/09 12:18:17;;;;;;;1999.90;999.90;;;;;;;12.66;67.41;-18245.69;5057186;28;20500;-28
2021/04/09 12:21:04;;;;;;;1999.90;999.90;;;;;;;12.70;69.30;-18246.75;5056954;28;20235;-28
2021/04/09 12:23:53;;;;;;;1999.90;999.90;;;;;;;13.55;66.73;-18269.03;5043462;28;20229;-28
2021/04/09 12:26:39;;;;;;;1999.90;999.90;;;;;;;13.20;66.34;-18259.84;5054594;28;20659;-28
2021/04/09 12:29:25;;;;;;;1999.90;999.90;;;;;;;13.57;66.48;-18269.56;5044083;28;20652;-28